createdAt,value
2018-09-15T00:00:31.478Z,5.17
2018-09-15T00:01:06.662Z,5.45
2018-09-15T00:01:41.937Z,5.78
2018-09-15T00:02:17.271Z,5.15
2018-09-15T00:02:53.952Z,5.55
2018-09-15T00:03:29.132Z,5.47
2018-09-15T00:04:04.678Z,5.30
2018-09-15T00:04:39.856Z,5.50
2018-09-15T00:05:15.527Z,5.12
2018-09-15T00:05:51.061Z,5.33
2018-09-15T00:06:26.309Z,5.55
2018-09-15T00:07:01.508Z,5.97
2018-09-15T00:07:36.785Z,5.50
2018-09-15T00:08:12.718Z,5.40
2018-09-15T00:08:47.976Z,5.95
2018-09-15T00:09:23.388Z,5.62
2018-09-15T00:09:58.592Z,5.95
2018-09-15T00:10:33.781Z,6.37
2018-09-15T00:11:09.163Z,6.50
2018-09-15T00:11:44.474Z,6.12
2018-09-15T00:12:19.879Z,6.35
2018-09-15T00:12:55.091Z,6.35
2018-09-15T00:13:30.652Z,6.70
2018-09-15T00:14:05.807Z,6.53
2018-09-15T00:14:41.043Z,6.78
2018-09-15T00:15:16.633Z,6.60
2018-09-15T00:15:52.026Z,7.30
2018-09-15T00:16:27.191Z,6.97
2018-09-15T00:17:02.496Z,6.85
2018-09-15T00:17:38.449Z,6.65
2018-09-15T00:18:15.951Z,6.92
2018-09-15T00:18:51.406Z,6.53
2018-09-15T00:19:26.618Z,7.25
2018-09-15T00:20:01.824Z,6.90
2018-09-15T00:20:37.070Z,6.53
2018-09-15T00:21:12.443Z,5.97
2018-09-15T00:21:47.784Z,7.03
2018-09-15T00:22:23.032Z,7.40
2018-09-15T00:22:58.235Z,6.72
2018-09-15T00:23:33.403Z,6.65
2018-09-15T00:24:08.845Z,6.67
2018-09-15T00:24:44.393Z,6.50
2018-09-15T00:25:19.738Z,6.47
2018-09-15T00:25:54.905Z,6.67
2018-09-15T00:26:29.621Z,6.37
2018-09-15T00:27:04.823Z,6.22
2018-09-15T00:27:40.064Z,5.80
2018-09-15T00:28:15.675Z,6.33
2018-09-15T00:28:50.926Z,6.60
2018-09-15T00:29:26.160Z,6.78
2018-09-15T00:30:01.343Z,6.08
2018-09-15T00:30:36.529Z,6.37
2018-09-15T00:31:12.135Z,5.83
2018-09-15T00:31:47.870Z,6.17
2018-09-15T00:32:23.111Z,6.37
2018-09-15T00:32:58.485Z,6.35
2018-09-15T00:33:33.675Z,5.92
2018-09-15T00:34:08.954Z,6.12
2018-09-15T00:34:44.416Z,5.55
2018-09-15T00:35:19.899Z,5.60
2018-09-15T00:35:55.142Z,7.22
2018-09-15T00:36:29.861Z,5.85
2018-09-15T00:37:05.043Z,6.00
2018-09-15T00:37:40.234Z,5.62
2018-09-15T00:38:15.660Z,5.97
2018-09-15T00:38:51.069Z,5.85
2018-09-15T00:39:26.379Z,5.65
2018-09-15T00:40:01.603Z,5.90
2018-09-15T00:40:36.775Z,5.92
2018-09-15T00:41:12.404Z,6.50
2018-09-15T00:41:47.999Z,5.58
2018-09-15T00:42:23.459Z,6.28
2018-09-15T00:42:58.879Z,5.47
2018-09-15T00:43:34.138Z,6.60
2018-09-15T00:44:09.470Z,5.97
2018-09-15T00:44:44.897Z,6.70
2018-09-15T00:45:20.367Z,6.05
2018-09-15T00:45:55.554Z,6.08
2018-09-15T00:46:30.267Z,6.30
2018-09-15T00:47:05.495Z,6.20
2018-09-15T00:47:40.694Z,6.12
2018-09-15T00:48:16.131Z,6.53
2018-09-15T00:48:51.434Z,5.90
2018-09-15T00:49:26.654Z,6.55
2018-09-15T00:50:01.830Z,7.45
2018-09-15T00:50:37.034Z,6.35
2018-09-15T00:51:12.706Z,5.92
2018-09-15T00:51:48.059Z,7.40
2018-09-15T00:52:23.300Z,6.20
2018-09-15T00:52:58.573Z,6.55
2018-09-15T00:53:33.736Z,6.25
2018-09-15T00:54:08.895Z,6.12
2018-09-15T00:54:44.432Z,6.33
2018-09-15T00:55:20.044Z,6.12
2018-09-15T00:55:55.262Z,6.37
2018-09-15T00:56:30.418Z,5.87
2018-09-15T00:57:06.079Z,6.20
2018-09-15T00:57:41.459Z,6.50
2018-09-15T00:58:16.735Z,6.00
2018-09-15T00:58:51.985Z,5.47
2018-09-15T00:59:27.173Z,6.10
2018-09-15T01:00:02.383Z,7.00
2018-09-15T01:00:37.582Z,7.08
2018-09-15T01:01:12.917Z,6.53
2018-09-15T01:01:48.194Z,7.37
2018-09-15T01:02:23.489Z,7.53
2018-09-15T01:02:58.670Z,7.40
2018-09-15T01:03:33.839Z,6.50
2018-09-15T01:04:09.015Z,7.17
2018-09-15T01:04:44.299Z,7.37
2018-09-15T01:05:19.957Z,7.53
2018-09-15T01:05:55.179Z,6.40
2018-09-15T01:06:30.397Z,6.62
2018-09-15T01:07:05.602Z,6.67
2018-09-15T01:07:40.814Z,6.53
2018-09-15T01:08:16.481Z,7.30
2018-09-15T01:08:51.708Z,6.95
2018-09-15T01:09:26.885Z,7.12
2018-09-15T01:10:02.211Z,6.47
2018-09-15T01:10:37.480Z,6.42
2018-09-15T01:11:12.791Z,6.40
2018-09-15T01:11:48.310Z,6.83
2018-09-15T01:12:23.573Z,6.75
2018-09-15T01:12:58.785Z,6.33
2018-09-15T01:13:34.113Z,7.00
2018-09-15T01:14:09.356Z,6.40
2018-09-15T01:14:44.997Z,6.97
2018-09-15T01:15:20.380Z,6.08
2018-09-15T01:15:55.609Z,6.80
2018-09-15T01:16:30.791Z,6.78
2018-09-15T01:17:06.107Z,6.75
2018-09-15T01:17:41.330Z,6.10
2018-09-15T01:18:16.649Z,6.47
2018-09-15T01:18:51.868Z,6.00
2018-09-15T01:19:27.087Z,6.42
2018-09-15T01:20:02.306Z,6.35
2018-09-15T01:20:38.051Z,5.92
2018-09-15T01:21:13.774Z,6.20
2018-09-15T01:21:49.303Z,6.10
2018-09-15T01:22:24.733Z,6.40
2018-09-15T01:22:59.945Z,5.83
2018-09-15T01:23:35.114Z,5.80
2018-09-15T01:24:10.752Z,6.25
2018-09-15T01:24:46.348Z,5.58
2018-09-15T01:25:22.224Z,5.40
2018-09-15T01:25:57.436Z,5.40
2018-09-15T01:26:32.772Z,5.87
2018-09-15T01:27:08.386Z,5.28
2018-09-15T01:27:43.681Z,5.83
2018-09-15T01:28:19.149Z,5.30
2018-09-15T01:28:54.317Z,5.72
2018-09-15T01:29:29.645Z,6.15
2018-09-15T01:30:04.905Z,5.65
2018-09-15T01:30:40.071Z,5.83
2018-09-15T01:31:15.330Z,5.65
2018-09-15T01:31:50.577Z,5.60
2018-09-15T01:32:27.485Z,6.10
2018-09-15T01:33:02.630Z,5.80
2018-09-15T01:33:37.799Z,5.67
2018-09-15T01:34:13.386Z,6.00
2018-09-15T01:34:48.948Z,5.75
2018-09-15T01:35:24.308Z,6.00
2018-09-15T01:35:59.482Z,5.35
2018-09-15T01:36:34.725Z,6.60
2018-09-15T01:37:09.977Z,6.40
2018-09-15T01:37:45.349Z,6.00
2018-09-15T01:38:20.804Z,6.53
2018-09-15T01:38:56.014Z,6.47
2018-09-15T01:39:31.186Z,5.95
2018-09-15T01:40:06.366Z,6.70
2018-09-15T01:40:41.900Z,6.05
2018-09-15T01:41:17.247Z,5.28
2018-09-15T01:41:52.500Z,6.20
2018-09-15T01:42:27.689Z,6.28
2018-09-15T01:43:02.889Z,5.97
2018-09-15T01:43:38.055Z,6.15
2018-09-15T01:44:13.825Z,6.25
2018-09-15T01:44:49.347Z,6.03
2018-09-15T01:45:24.664Z,6.42
2018-09-15T01:45:59.838Z,5.70
2018-09-15T01:46:35.069Z,6.25
2018-09-15T01:47:10.284Z,5.72
2018-09-15T01:47:45.592Z,6.42
2018-09-15T01:48:20.850Z,5.85
2018-09-15T01:48:56.111Z,6.65
2018-09-15T01:49:31.506Z,6.87
2018-09-15T01:50:06.734Z,5.70
2018-09-15T01:50:41.451Z,6.62
2018-09-15T01:51:16.772Z,6.28
2018-09-15T01:51:52.095Z,6.12
2018-09-15T01:52:27.405Z,6.78
2018-09-15T01:53:02.959Z,5.72
2018-09-15T01:53:38.114Z,6.25
2018-09-15T01:54:13.314Z,6.55
2018-09-15T01:54:48.932Z,6.28
2018-09-15T01:55:24.641Z,6.28
2018-09-15T01:55:59.856Z,6.47
2018-09-15T01:56:35.067Z,6.62
2018-09-15T01:57:10.262Z,6.60
2018-09-15T01:57:45.443Z,6.67
2018-09-15T01:58:21.203Z,6.58
2018-09-15T01:58:56.815Z,6.60
2018-09-15T01:59:32.123Z,6.47
2018-09-15T02:00:07.376Z,6.50
2018-09-15T02:00:42.741Z,6.70
2018-09-15T02:01:17.966Z,6.75
2018-09-15T02:01:53.408Z,6.20
2018-09-15T02:02:28.682Z,6.72
2018-09-15T02:03:04.502Z,6.83
2018-09-15T02:03:39.325Z,6.70
2018-09-15T02:04:14.511Z,6.75
2018-09-15T02:04:49.903Z,6.72
2018-09-15T02:05:25.178Z,6.60
2018-09-15T02:06:00.715Z,6.95
2018-09-15T02:06:35.883Z,7.30
2018-09-15T02:07:11.110Z,7.15
2018-09-15T02:07:46.415Z,7.28
2018-09-15T02:08:22.005Z,6.50
2018-09-15T02:08:57.367Z,7.00
2018-09-15T02:09:32.635Z,7.87
2018-09-15T02:10:08.169Z,7.35
2018-09-15T02:10:43.360Z,7.70
2018-09-15T02:11:18.782Z,7.40
2018-09-15T02:11:54.064Z,7.33
2018-09-15T02:12:29.683Z,7.40
2018-09-15T02:13:04.864Z,6.87
2018-09-15T02:13:40.066Z,7.12
2018-09-15T02:14:15.238Z,7.10
2018-09-15T02:14:50.964Z,7.37
2018-09-15T02:15:26.271Z,6.83
2018-09-15T02:16:01.498Z,7.10
2018-09-15T02:16:37.062Z,7.37
2018-09-15T02:17:12.244Z,7.70
2018-09-15T02:17:47.463Z,7.00
2018-09-15T02:18:22.934Z,6.80
2018-09-15T02:18:58.338Z,7.58
2018-09-15T02:19:33.509Z,6.87
2018-09-15T02:20:08.643Z,7.22
2018-09-15T02:20:43.835Z,7.05
2018-09-15T02:21:19.294Z,7.20
2018-09-15T02:21:54.622Z,7.15
2018-09-15T02:22:30.221Z,7.15
2018-09-15T02:23:05.717Z,6.85
2018-09-15T02:23:41.109Z,7.37
2018-09-15T02:24:16.285Z,7.10
2018-09-15T02:24:51.770Z,7.40
2018-09-15T02:25:27.301Z,7.00
2018-09-15T02:26:02.503Z,7.05
2018-09-15T02:26:37.698Z,6.80
2018-09-15T02:27:12.861Z,7.70
2018-09-15T02:27:48.214Z,7.37
2018-09-15T02:28:23.648Z,7.58
2018-09-15T02:28:58.969Z,7.78
2018-09-15T02:29:34.308Z,7.40
2018-09-15T02:30:09.522Z,7.60
2018-09-15T02:30:44.698Z,7.33
2018-09-15T02:31:20.305Z,7.87
2018-09-15T02:31:55.758Z,7.30
2018-09-15T02:32:31.115Z,7.45
2018-09-15T02:33:06.358Z,8.15
2018-09-15T02:33:41.672Z,6.90
2018-09-15T02:34:17.278Z,7.10
2018-09-15T02:34:52.707Z,8.43
2018-09-15T02:35:28.146Z,7.75
2018-09-15T02:36:03.595Z,7.58
2018-09-15T02:36:38.876Z,7.90
2018-09-15T02:37:14.402Z,7.47
2018-09-15T02:37:49.823Z,8.15
2018-09-15T02:38:25.187Z,8.15
2018-09-15T02:39:00.498Z,8.05
2018-09-15T02:39:35.691Z,7.90
2018-09-15T02:40:10.899Z,8.50
2018-09-15T02:40:46.181Z,7.83
2018-09-15T02:41:21.590Z,8.23
2018-09-15T02:41:57.096Z,8.10
2018-09-15T02:42:32.489Z,8.10
2018-09-15T02:43:07.658Z,7.60
2018-09-15T02:43:42.879Z,7.55
2018-09-15T02:44:18.746Z,7.67
2018-09-15T02:44:54.165Z,7.55
2018-09-15T02:45:29.418Z,8.50
2018-09-15T02:46:04.633Z,7.25
2018-09-15T02:46:40.204Z,8.08
2018-09-15T02:47:15.401Z,7.70
2018-09-15T02:47:50.756Z,7.80
2018-09-15T02:48:26.112Z,7.55
2018-09-15T02:49:01.311Z,7.40
2018-09-15T02:49:36.531Z,7.87
2018-09-15T02:50:11.731Z,7.45
2018-09-15T02:50:46.961Z,7.95
2018-09-15T02:51:22.214Z,8.55
2018-09-15T02:51:57.439Z,8.38
2018-09-15T02:52:32.616Z,8.15
2018-09-15T02:53:07.834Z,8.13
2018-09-15T02:53:43.532Z,7.70
2018-09-15T02:54:18.781Z,8.43
2018-09-15T02:54:54.131Z,7.85
2018-09-15T02:55:29.787Z,7.72
2018-09-15T02:56:05.358Z,7.50
2018-09-15T02:56:40.560Z,8.00
2018-09-15T02:57:15.795Z,7.85
2018-09-15T02:57:51.347Z,7.75
2018-09-15T02:58:26.769Z,7.50
2018-09-15T02:59:01.997Z,7.87
2018-09-15T02:59:37.190Z,7.75
2018-09-15T03:00:12.423Z,7.45
2018-09-15T03:00:47.747Z,7.75
2018-09-15T03:01:23.132Z,7.85
2018-09-15T03:01:58.555Z,7.80
2018-09-15T03:02:34.279Z,7.60
2018-09-15T03:03:10.346Z,7.87
2018-09-15T03:03:45.805Z,8.20
2018-09-15T03:04:21.330Z,8.18
2018-09-15T03:04:57.014Z,8.05
2018-09-15T03:05:32.209Z,7.67
2018-09-15T03:06:07.394Z,8.63
2018-09-15T03:06:42.595Z,7.90
2018-09-15T03:07:17.811Z,8.18
2018-09-15T03:07:53.366Z,8.00
2018-09-15T03:08:28.640Z,7.75
2018-09-15T03:09:04.208Z,8.20
2018-09-15T03:09:39.391Z,8.63
2018-09-15T03:10:14.557Z,8.13
2018-09-15T03:10:50.065Z,7.53
2018-09-15T03:11:25.594Z,8.38
2018-09-15T03:12:00.980Z,8.35
2018-09-15T03:12:36.183Z,8.40
2018-09-15T03:13:11.399Z,8.58
2018-09-15T03:13:46.578Z,7.90
2018-09-15T03:14:21.932Z,7.80
2018-09-15T03:14:57.257Z,7.70
2018-09-15T03:15:32.452Z,8.53
2018-09-15T03:16:07.647Z,7.75
2018-09-15T03:16:42.864Z,8.05
2018-09-15T03:17:18.612Z,8.10
2018-09-15T03:17:53.936Z,7.78
2018-09-15T03:18:29.342Z,7.97
2018-09-15T03:19:04.529Z,7.50
2018-09-15T03:19:39.719Z,7.80
2018-09-15T03:20:14.911Z,7.28
2018-09-15T03:20:50.418Z,8.00
2018-09-15T03:21:25.934Z,8.55
2018-09-15T03:22:01.417Z,8.25
2018-09-15T03:22:36.653Z,7.85
2018-09-15T03:23:11.818Z,8.60
2018-09-15T03:23:47.071Z,8.83
2018-09-15T03:24:22.588Z,8.43
2018-09-15T03:24:57.840Z,9.13
2018-09-15T03:25:33.037Z,8.40
2018-09-15T03:26:08.230Z,8.13
2018-09-15T03:26:43.447Z,8.33
2018-09-15T03:27:19.034Z,8.95
2018-09-15T03:27:54.411Z,7.90
2018-09-15T03:28:29.646Z,8.38
2018-09-15T03:29:04.827Z,8.33
2018-09-15T03:29:40.018Z,8.83
2018-09-15T03:30:15.249Z,8.40
2018-09-15T03:30:50.908Z,8.80
2018-09-15T03:31:26.142Z,7.95
2018-09-15T03:32:01.366Z,7.80
2018-09-15T03:32:36.745Z,8.58
2018-09-15T03:33:11.929Z,8.33
2018-09-15T03:33:47.389Z,7.60
2018-09-15T03:34:22.878Z,8.78
2018-09-15T03:34:58.226Z,8.20
2018-09-15T03:35:33.438Z,8.38
2018-09-15T03:36:08.632Z,8.28
2018-09-15T03:36:43.843Z,8.28
2018-09-15T03:37:19.196Z,8.10
2018-09-15T03:37:54.688Z,9.00
2018-09-15T03:38:30.181Z,7.65
2018-09-15T03:39:07.859Z,8.10
2018-09-15T03:39:43.090Z,8.18
2018-09-15T03:40:18.373Z,8.55
2018-09-15T03:40:53.731Z,8.98
2018-09-15T03:41:29.175Z,8.78
2018-09-15T03:42:04.561Z,8.23
2018-09-15T03:42:39.742Z,8.38
2018-09-15T03:43:15.045Z,8.38
2018-09-15T03:43:50.582Z,8.73
2018-09-15T03:44:26.333Z,8.05
2018-09-15T03:45:01.602Z,8.68
2018-09-15T03:45:36.823Z,8.95
2018-09-15T03:46:12.024Z,8.78
2018-09-15T03:46:47.601Z,8.70
2018-09-15T03:47:22.926Z,9.45
2018-09-15T03:47:58.234Z,8.80
2018-09-15T03:48:33.406Z,8.05
2018-09-15T03:49:08.992Z,8.35
2018-09-15T03:49:44.409Z,9.40
2018-09-15T03:50:19.973Z,8.58
2018-09-15T03:50:55.416Z,8.50
2018-09-15T03:51:30.740Z,9.65
2018-09-15T03:52:05.962Z,8.83
2018-09-15T03:52:41.243Z,9.50
2018-09-15T03:53:16.592Z,8.65
2018-09-15T03:53:51.867Z,8.65
2018-09-15T03:54:27.297Z,8.68
2018-09-15T03:55:02.522Z,9.23
2018-09-15T03:55:37.702Z,9.30
2018-09-15T03:56:12.922Z,10.23
2018-09-15T03:56:48.579Z,9.28
2018-09-15T03:57:23.840Z,9.10
2018-09-15T03:57:59.166Z,9.00
2018-09-15T03:58:34.570Z,9.90
2018-09-15T03:59:09.779Z,8.55
2018-09-15T03:59:44.951Z,8.80
2018-09-15T04:00:20.357Z,8.48
2018-09-15T04:00:55.935Z,9.13
2018-09-15T04:01:31.159Z,9.03
2018-09-15T04:02:06.361Z,8.85
2018-09-15T04:02:41.595Z,8.75
2018-09-15T04:03:17.371Z,8.65
2018-09-15T04:03:52.663Z,9.33
2018-09-15T04:04:27.934Z,9.25
2018-09-15T04:05:03.108Z,9.38
2018-09-15T04:05:38.308Z,8.85
2018-09-15T04:06:13.522Z,9.88
2018-09-15T04:06:48.901Z,10.30
2018-09-15T04:07:24.276Z,9.58
2018-09-15T04:07:59.551Z,9.08
2018-09-15T04:08:34.777Z,8.83
2018-09-15T04:09:11.186Z,8.45
2018-09-15T04:09:46.387Z,8.68
2018-09-15T04:10:21.837Z,8.03
2018-09-15T04:10:57.112Z,8.98
2018-09-15T04:11:32.349Z,9.48
2018-09-15T04:12:07.728Z,9.20
2018-09-15T04:12:43.478Z,9.43
2018-09-15T04:13:19.156Z,8.95
2018-09-15T04:13:54.572Z,8.83
2018-09-15T04:14:29.779Z,8.50
2018-09-15T04:15:05.385Z,9.23
2018-09-15T04:15:40.770Z,9.30
2018-09-15T04:16:15.957Z,9.75
2018-09-15T04:16:51.405Z,12.73
2018-09-15T04:17:26.730Z,10.30
2018-09-15T04:18:02.218Z,9.23
2018-09-15T04:18:37.842Z,8.50
2018-09-15T04:19:13.104Z,8.73
2018-09-15T04:19:48.339Z,8.93
2018-09-15T04:20:23.684Z,8.90
2018-09-15T04:20:58.890Z,9.23
2018-09-15T04:21:34.108Z,9.10
2018-09-15T04:22:09.278Z,8.88
2018-09-15T04:22:43.946Z,8.48
2018-09-15T04:23:19.573Z,9.13
2018-09-15T04:23:54.839Z,9.33
2018-09-15T04:24:30.034Z,8.93
2018-09-15T04:25:05.557Z,8.93
2018-09-15T04:25:40.882Z,9.55
2018-09-15T04:26:15.574Z,8.93
2018-09-15T04:26:50.394Z,8.28
2018-09-15T04:27:25.326Z,8.20
2018-09-15T04:28:00.581Z,8.98
2018-09-15T04:28:35.916Z,9.98
2018-09-15T04:29:11.271Z,10.60
2018-09-15T04:29:46.498Z,9.95
2018-09-15T04:30:21.927Z,9.88
2018-09-15T04:30:57.369Z,8.53
2018-09-15T04:31:32.655Z,8.55
2018-09-15T04:32:07.890Z,10.98
2018-09-15T04:32:43.245Z,8.45
2018-09-15T04:33:18.706Z,9.18
2018-09-15T04:33:54.012Z,9.78
2018-09-15T04:34:29.364Z,8.65
2018-09-15T04:35:04.712Z,7.85
2018-09-15T04:35:40.178Z,7.85
2018-09-15T04:36:15.725Z,8.85
2018-09-15T04:36:51.133Z,9.03
2018-09-15T04:37:26.539Z,9.18
2018-09-15T04:38:01.770Z,9.50
2018-09-15T04:38:36.969Z,8.78
2018-09-15T04:39:12.889Z,9.23
2018-09-15T04:39:48.074Z,8.73
2018-09-15T04:40:23.471Z,8.45
2018-09-15T04:40:58.855Z,8.65
2018-09-15T04:41:41.289Z,10.88
2018-09-15T04:42:16.612Z,8.05
2018-09-15T04:42:52.056Z,7.95
2018-09-15T04:43:27.405Z,8.03
2018-09-15T04:44:02.562Z,8.23
2018-09-15T04:44:37.759Z,8.60
2018-09-15T04:45:12.989Z,8.30
2018-09-15T04:45:48.302Z,8.80
2018-09-15T04:46:23.716Z,10.03
2018-09-15T04:46:59.055Z,8.38
2018-09-15T04:47:34.230Z,8.20
2018-09-15T04:48:09.454Z,8.83
2018-09-15T04:48:44.637Z,9.33
2018-09-15T04:49:19.990Z,8.03
2018-09-15T04:49:55.336Z,8.93
2018-09-15T04:50:30.616Z,8.43
2018-09-15T04:51:06.202Z,7.75
2018-09-15T04:51:41.394Z,8.35
2018-09-15T04:52:16.584Z,7.97
2018-09-15T04:52:51.830Z,11.20
2018-09-15T04:53:27.116Z,8.75
2018-09-15T04:54:02.428Z,8.00
2018-09-15T04:54:37.602Z,8.63
2018-09-15T04:55:12.846Z,9.25
2018-09-15T04:55:48.125Z,10.93
2018-09-15T04:56:23.667Z,10.95
2018-09-15T04:56:58.929Z,8.95
2018-09-15T04:57:34.155Z,11.40
2018-09-15T04:58:09.358Z,8.55
2018-09-15T04:58:44.625Z,8.98
2018-09-15T04:59:20.162Z,9.15
2018-09-15T04:59:55.472Z,9.08
2018-09-15T05:00:30.840Z,9.23
2018-09-15T05:01:06.468Z,9.35
2018-09-15T05:01:41.685Z,10.75
2018-09-15T05:02:16.946Z,10.35
2018-09-15T05:02:52.399Z,9.63
2018-09-15T05:03:27.930Z,9.35
2018-09-15T05:04:03.145Z,9.18
2018-09-15T05:04:38.341Z,9.55
2018-09-15T05:05:13.695Z,10.63
2018-09-15T05:05:49.039Z,9.60
2018-09-15T05:06:24.788Z,9.35
2018-09-15T05:07:00.106Z,8.33
2018-09-15T05:07:35.310Z,8.98
2018-09-15T05:08:10.529Z,9.03
2018-09-15T05:08:45.667Z,8.33
2018-09-15T05:09:21.315Z,9.00
2018-09-15T05:09:56.679Z,9.33
2018-09-15T05:10:32.217Z,9.68
2018-09-15T05:11:07.493Z,8.48
2018-09-15T05:11:42.963Z,9.15
2018-09-15T05:12:18.254Z,8.85
2018-09-15T05:12:53.610Z,8.95
2018-09-15T05:13:28.509Z,8.65
2018-09-15T05:14:03.727Z,11.00
2018-09-15T05:14:38.932Z,9.88
2018-09-15T05:15:13.550Z,10.38
2018-09-15T05:15:48.655Z,9.47
2018-09-15T05:16:24.030Z,9.18
2018-09-15T05:16:59.533Z,10.68
2018-09-15T05:17:34.150Z,9.13
2018-09-15T05:18:09.422Z,9.55
2018-09-15T05:18:44.597Z,9.30
2018-09-15T05:19:20.515Z,10.10
2018-09-15T05:19:55.377Z,10.70
2018-09-15T05:20:30.608Z,9.15
2018-09-15T05:21:06.182Z,9.85
2018-09-15T05:21:41.426Z,9.55
2018-09-15T05:22:16.719Z,9.30
2018-09-15T05:22:52.272Z,9.28
2018-09-15T05:23:27.706Z,10.03
2018-09-15T05:24:02.394Z,9.35
2018-09-15T05:24:37.577Z,9.05
2018-09-15T05:25:12.219Z,9.40
2018-09-15T05:25:47.492Z,8.75
2018-09-15T05:26:22.791Z,8.25
2018-09-15T05:26:58.063Z,8.75
2018-09-15T05:27:33.323Z,9.30
2018-09-15T05:28:08.566Z,10.00
2018-09-15T05:28:43.769Z,9.50
2018-09-15T05:29:19.254Z,9.48
2018-09-15T05:29:54.510Z,9.73
2018-09-15T05:30:29.375Z,9.47
2018-09-15T05:31:04.662Z,10.18
2018-09-15T05:31:39.975Z,9.38
2018-09-15T05:32:15.286Z,9.63
2018-09-15T05:32:50.886Z,11.03
2018-09-15T05:33:26.289Z,9.80
2018-09-15T05:34:01.488Z,8.73
2018-09-15T05:34:36.891Z,8.65
2018-09-15T05:35:12.098Z,8.70
2018-09-15T05:35:47.289Z,9.40
2018-09-15T05:36:22.760Z,9.80
2018-09-15T05:36:57.624Z,8.83
2018-09-15T05:37:32.917Z,9.65
2018-09-15T05:38:07.776Z,9.17
2018-09-15T05:38:43.326Z,9.23
2018-09-15T05:39:18.655Z,9.08
2018-09-15T05:39:54.007Z,9.43
2018-09-15T05:40:29.510Z,9.33
2018-09-15T05:41:04.772Z,9.23
2018-09-15T05:41:40.002Z,9.50
2018-09-15T05:42:15.166Z,8.63
2018-09-15T05:42:50.522Z,9.63
2018-09-15T05:43:25.835Z,8.93
2018-09-15T05:44:01.131Z,9.20
2018-09-15T05:44:36.417Z,10.45
2018-09-15T05:45:11.607Z,9.73
2018-09-15T05:45:46.832Z,9.75
2018-09-15T05:46:22.398Z,9.13
2018-09-15T05:46:57.702Z,10.05
2018-09-15T05:47:32.948Z,8.70
2018-09-15T05:48:08.292Z,8.95
2018-09-15T05:48:43.500Z,9.18
2018-09-15T05:49:19.260Z,8.95
2018-09-15T05:49:54.655Z,8.58
2018-09-15T05:50:30.428Z,8.53
2018-09-15T05:51:05.615Z,8.65
2018-09-15T05:51:40.823Z,8.98
2018-09-15T05:52:16.026Z,8.80
2018-09-15T05:52:51.234Z,9.58
2018-09-15T05:53:26.136Z,9.48
2018-09-15T05:54:01.394Z,9.68
2018-09-15T05:54:36.953Z,9.33
2018-09-15T05:55:12.607Z,9.28
2018-09-15T05:55:47.934Z,9.05
2018-09-15T05:56:23.353Z,9.30
2018-09-15T05:56:59.139Z,9.33
2018-09-15T05:57:34.334Z,9.38
2018-09-15T05:58:09.708Z,9.48
2018-09-15T05:58:44.906Z,10.18
2018-09-15T05:59:20.385Z,9.45
2018-09-15T05:59:55.690Z,9.85
2018-09-15T06:00:31.130Z,9.90
2018-09-15T06:01:07.226Z,9.48
2018-09-15T06:01:42.493Z,9.95
2018-09-15T06:02:17.843Z,9.80
2018-09-15T06:02:53.637Z,9.75
2018-09-15T06:03:28.937Z,9.65
2018-09-15T06:04:04.227Z,9.43
2018-09-15T06:04:39.454Z,9.70
2018-09-15T06:05:14.625Z,9.78
2018-09-15T06:05:50.415Z,9.38
2018-09-15T06:06:25.931Z,9.85
2018-09-15T06:07:01.490Z,10.13
2018-09-15T06:07:36.835Z,9.83
2018-09-15T06:08:12.293Z,10.10
2018-09-15T06:08:47.506Z,10.10
2018-09-15T06:09:22.688Z,9.50
2018-09-15T06:09:58.152Z,9.55
2018-09-15T06:10:33.362Z,9.40
2018-09-15T06:11:08.628Z,10.58
2018-09-15T06:11:43.860Z,11.97
2018-09-15T06:12:19.233Z,10.68
2018-09-15T06:12:54.604Z,11.50
2018-09-15T06:13:30.025Z,9.83
2018-09-15T06:14:05.845Z,10.23
2018-09-15T06:14:41.050Z,10.35
2018-09-15T06:15:16.290Z,10.23
2018-09-15T06:15:52.574Z,9.53
2018-09-15T06:16:27.961Z,9.63
2018-09-15T06:17:03.300Z,9.25
2018-09-15T06:17:38.512Z,9.65
2018-09-15T06:18:13.691Z,9.38
2018-09-15T06:18:49.339Z,14.03
2018-09-15T06:19:25.033Z,9.18
2018-09-15T06:20:00.391Z,9.03
2018-09-15T06:20:35.630Z,10.00
2018-09-15T06:21:10.883Z,9.25
2018-09-15T06:21:46.082Z,8.90
2018-09-15T06:22:21.412Z,9.63
2018-09-15T06:22:56.998Z,10.30
2018-09-15T06:23:32.653Z,9.20
2018-09-15T06:24:07.904Z,9.40
2018-09-15T06:24:42.645Z,8.80
2018-09-15T06:25:18.087Z,9.80
2018-09-15T06:25:53.825Z,9.48
2018-09-15T06:26:29.746Z,9.50
2018-09-15T06:27:05.014Z,9.23
2018-09-15T06:27:40.237Z,9.28
2018-09-15T06:28:15.454Z,8.75
2018-09-15T06:28:50.923Z,9.60
2018-09-15T06:29:26.484Z,8.75
2018-09-15T06:30:01.709Z,8.93
2018-09-15T06:30:36.909Z,8.45
2018-09-15T06:31:12.094Z,8.73
2018-09-15T06:31:47.346Z,8.85
2018-09-15T06:32:22.721Z,9.40
2018-09-15T06:32:58.092Z,8.83
2018-09-15T06:33:33.346Z,14.98
2018-09-15T06:34:08.583Z,9.25
2018-09-15T06:34:43.390Z,9.45
2018-09-15T06:35:19.187Z,9.30
2018-09-15T06:35:54.617Z,8.93
2018-09-15T06:36:30.069Z,9.50
2018-09-15T06:37:05.824Z,9.00
2018-09-15T06:37:41.079Z,9.30
2018-09-15T06:38:16.254Z,9.18
2018-09-15T06:38:51.652Z,9.43
2018-09-15T06:39:27.254Z,8.63
2018-09-15T06:40:02.666Z,8.23
2018-09-15T06:40:38.222Z,8.95
2018-09-15T06:41:13.425Z,8.50
2018-09-15T06:41:48.712Z,8.75
2018-09-15T06:42:24.266Z,9.30
2018-09-15T06:42:59.471Z,9.08
2018-09-15T06:43:34.641Z,8.70
2018-09-15T06:44:09.845Z,9.05
2018-09-15T06:44:45.072Z,8.63
2018-09-15T06:45:21.256Z,8.38
2018-09-15T06:45:57.069Z,7.35
2018-09-15T06:46:32.406Z,8.30
2018-09-15T06:47:07.733Z,8.25
2018-09-15T06:47:42.910Z,8.28
2018-09-15T06:48:18.157Z,8.65
2018-09-15T06:48:53.691Z,8.83
2018-09-15T06:49:29.385Z,9.25
2018-09-15T06:50:04.993Z,7.95
2018-09-15T06:50:40.231Z,8.25
2018-09-15T06:51:15.448Z,8.28
2018-09-15T06:51:50.634Z,7.95
2018-09-15T06:52:25.849Z,8.30
2018-09-15T06:53:01.030Z,7.30
2018-09-15T06:53:36.220Z,8.33
2018-09-15T06:54:11.638Z,7.62
2018-09-15T06:54:46.830Z,7.95
2018-09-15T06:55:22.710Z,8.75
2018-09-15T06:55:57.969Z,8.23
2018-09-15T06:56:33.172Z,7.97
2018-09-15T06:57:08.402Z,7.95
2018-09-15T06:57:43.646Z,8.70
2018-09-15T06:58:19.000Z,8.08
2018-09-15T06:58:54.369Z,8.00
2018-09-15T06:59:30.265Z,7.92
2018-09-15T07:00:05.868Z,7.78
2018-09-15T07:00:41.114Z,7.80
2018-09-15T07:01:16.478Z,8.45
2018-09-15T07:01:52.174Z,7.60
2018-09-15T07:02:27.454Z,7.20
2018-09-15T07:03:02.790Z,7.67
2018-09-15T07:03:37.984Z,8.00
2018-09-15T07:04:13.559Z,8.28
2018-09-15T07:04:49.191Z,7.62
2018-09-15T07:05:24.469Z,7.83
2018-09-15T07:05:59.698Z,7.35
2018-09-15T07:06:34.874Z,7.60
2018-09-15T07:07:10.077Z,7.10
2018-09-15T07:07:45.251Z,7.30
2018-09-15T07:08:21.314Z,7.35
2018-09-15T07:08:56.561Z,7.20
2018-09-15T07:09:31.861Z,6.90
2018-09-15T07:10:07.033Z,7.28
2018-09-15T07:11:45.606Z,8.25
2018-09-15T07:12:21.018Z,7.22
2018-09-15T07:12:56.317Z,7.60
2018-09-15T07:13:31.778Z,7.10
2018-09-15T07:14:07.173Z,6.83
2018-09-15T07:14:42.403Z,7.22
2018-09-15T07:15:17.608Z,6.53
2018-09-15T07:15:53.057Z,6.90
2018-09-15T07:16:28.307Z,7.10
2018-09-15T07:17:03.900Z,7.10
2018-09-15T07:17:39.070Z,7.40
2018-09-15T07:18:14.455Z,7.30
2018-09-15T07:18:49.715Z,7.03
2018-09-15T07:19:25.169Z,7.47
2018-09-15T07:20:00.498Z,7.03
2018-09-15T07:20:35.944Z,8.83
2018-09-15T07:21:10.732Z,7.33
2018-09-15T07:21:45.914Z,7.12
2018-09-15T07:22:21.386Z,8.68
2018-09-15T07:22:56.902Z,7.40
2018-09-15T07:23:32.739Z,7.17
2018-09-15T07:24:08.323Z,7.50
2018-09-15T07:24:43.535Z,7.35
2018-09-15T07:25:19.026Z,7.75
2018-09-15T07:25:54.832Z,6.75
2018-09-15T07:26:31.027Z,7.62
2018-09-15T07:27:06.238Z,7.47
2018-09-15T07:27:41.441Z,6.95
2018-09-15T07:28:16.638Z,7.05
2018-09-15T07:28:52.293Z,7.53
2018-09-15T07:29:27.657Z,7.58
2018-09-15T07:30:03.107Z,7.60
2018-09-15T07:30:38.324Z,6.55
2018-09-15T07:31:13.727Z,7.20
2018-09-15T07:31:49.431Z,7.00
2018-09-15T07:32:25.346Z,7.25
2018-09-15T07:33:00.642Z,7.58
2018-09-15T07:33:35.947Z,7.90
2018-09-15T07:34:11.146Z,6.92
2018-09-15T07:34:46.675Z,7.42
2018-09-15T07:35:22.347Z,7.33
2018-09-15T07:35:57.727Z,7.67
2018-09-15T07:36:32.938Z,7.42
2018-09-15T07:37:08.196Z,7.17
2018-09-15T07:37:43.456Z,7.22
2018-09-15T07:38:18.841Z,7.67
2018-09-15T07:38:54.772Z,6.60
2018-09-15T07:39:30.386Z,7.55
2018-09-15T07:40:06.013Z,8.58
2018-09-15T07:40:41.196Z,8.55
2018-09-15T07:41:16.407Z,8.75
2018-09-15T07:41:51.995Z,8.20
2018-09-15T07:42:27.557Z,8.15
2018-09-15T07:43:02.772Z,8.43
2018-09-15T07:43:38.087Z,7.90
2018-09-15T07:44:13.270Z,8.25
2018-09-15T07:44:50.071Z,9.28
2018-09-15T07:45:27.893Z,8.38
2018-09-15T07:46:06.290Z,8.35
2018-09-15T07:46:41.626Z,7.33
2018-09-15T07:47:16.843Z,8.25
2018-09-15T07:47:52.518Z,8.35
2018-09-15T07:48:27.983Z,7.87
2018-09-15T07:49:03.350Z,7.75
2018-09-15T07:49:38.557Z,7.95
2018-09-15T07:50:13.788Z,8.53
2018-09-15T07:50:49.010Z,7.45
2018-09-15T07:51:24.715Z,8.05